Time;durP1;ratioP1;P1;durP2;ratioP2;P2;SDS_P1;SDS_P2;PMS_P1;PMS_P2;Temp;Humidity;BMP_temperature;BMP_pressure;BME280_temperature;BME280_humidity;BME280_pressure;Samples;Min_cycle;Max_cycle;Signal;HPM_P1;HPM_P2
2023/03/30 00:06:23;;;;;;;7.70;3.90;;;12.10;90.70;;;;;;21077759;28;20219;-73
2023/03/30 00:16:26;;;;;;;6.97;3.73;;;12.00;91.00;;;;;;21077430;28;20291;-73
2023/03/30 00:26:27;;;;;;;8.17;3.50;;;12.00;91.20;;;;;;21084725;28;20205;-72
2023/03/30 00:36:29;;;;;;;6.60;3.50;;;12.00;91.30;;;;;;21092115;28;20701;-72
2023/03/30 00:46:31;;;;;;;8.90;4.10;;;11.90;91.70;;;;;;21091483;28;20274;-74
2023/03/30 00:56:33;;;;;;;6.83;3.23;;;12.00;91.90;;;;;;21090993;28;20226;-75
2023/03/30 01:06:38;;;;;;;7.00;3.60;;;11.90;91.80;;;;;;21089874;28;20597;-75
2023/03/30 01:17:08;;;;;;;11.20;4.30;;;11.90;92.20;;;;;;21089052;28;20594;-72
2023/03/30 01:27:45;;;;;;;4.93;3.63;;;11.90;92.60;;;;;;21088647;28;20210;-72
2023/03/30 01:38:08;;;;;;;7.17;3.70;;;11.90;92.60;;;;;;21087369;28;20236;-71
2023/03/30 01:48:32;;;;;;;7.50;3.50;;;11.90;93.20;;;;;;21086299;28;20647;-73
2023/03/30 01:58:51;;;;;;;12.23;4.43;;;11.80;93.30;;;;;;21085630;28;20670;-73
2023/03/30 02:13:31;;;;;;;6.87;3.57;;;11.80;93.60;;;;;;21068038;27;20559;-75
2023/03/30 02:23:38;;;;;;;6.83;3.67;;;11.80;93.80;;;;;;21067751;28;20577;-75
2023/03/30 02:33:39;;;;;;;15.43;4.00;;;11.80;93.90;;;;;;21066778;28;20678;-73
2023/03/30 02:44:18;;;;;;;7.90;3.13;;;12.00;93.80;;;;;;21065717;28;20209;-72
2023/03/30 02:54:30;;;;;;;9.10;3.37;;;12.10;93.80;;;;;;21054558;28;20262;-72
2023/03/30 03:04:33;;;;;;;9.50;3.10;;;12.20;93.80;;;;;;21064067;28;20264;-71
2023/03/30 03:14:36;;;;;;;11.93;2.80;;;;;;;;;;21063542;28;20213;-73
2023/03/30 03:24:38;;;;;;;11.53;2.87;;;12.90;92.70;;;;;;21008116;28;20234;-74
2023/03/30 03:34:43;;;;;;;11.50;3.10;;;13.10;92.30;;;;;;21004742;28;20236;-74
2023/03/30 03:44:45;;;;;;;10.73;3.30;;;13.40;91.90;;;;;;21005284;28;20304;-77
2023/03/30 03:54:46;;;;;;;13.33;2.97;;;13.70;91.40;;;;;;21004884;28;20227;-77
2023/03/30 04:04:49;;;;;;;22.47;3.33;;;13.90;91.10;;;;;;21003445;28;20231;-74
2023/03/30 04:14:50;;;;;;;10.10;2.87;;;14.00;91.40;;;;;;21002934;28;20208;-75
2023/03/30 04:24:52;;;;;;;10.57;3.30;;;14.10;92.20;;;;;;21002130;28;20235;-75
2023/03/30 04:34:54;;;;;;;12.90;3.17;;;14.10;92.30;;;;;;20999960;28;20667;-74
2023/03/30 04:44:56;;;;;;;17.33;3.10;;;14.00;93.00;;;;;;20998975;28;20236;-74
2023/03/30 04:54:58;;;;;;;8.80;3.13;;;14.10;93.10;;;;;;20999421;28;20248;-72
2023/03/30 05:12:31;;;;;;;16.20;4.00;;;;;;;;;;21067797;28;20563;-74
2023/03/30 05:22:33;;;;;;;18.07;3.73;;;14.00;94.40;;;;;;21066024;28;20206;-74
2023/03/30 05:32:35;;;;;;;12.23;3.40;;;13.90;94.80;;;;;;21066292;28;20236;-77
2023/03/30 05:42:37;;;;;;;14.47;3.40;;;13.80;95.20;;;;;;21065047;28;20215;-75
2023/03/30 05:52:38;;;;;;;12.03;3.43;;;13.80;95.70;;;;;;21064952;28;20248;-78
2023/03/30 06:02:40;;;;;;;14.07;4.03;;;13.80;96.00;;;;;;21063536;28;20212;-75
2023/03/30 06:12:42;;;;;;;13.63;4.13;;;13.80;96.40;;;;;;21063343;28;20321;-76
2023/03/30 06:22:44;;;;;;;11.10;3.60;;;13.80;96.60;;;;;;21012739;28;20210;-77
2023/03/30 06:32:46;;;;;;;15.73;4.07;;;13.80;97.20;;;;;;21005060;28;20257;-77
2023/03/30 06:42:48;;;;;;;17.63;4.40;;;13.70;97.60;;;;;;21004439;28;20273;-76
2023/03/30 06:52:49;;;;;;;23.20;5.13;;;13.60;98.20;;;;;;21004303;28;20597;-78
2023/03/30 07:02:51;;;;;;;12.33;3.90;;;13.60;98.80;;;;;;21003175;28;20285;-78
2023/03/30 07:12:53;;;;;;;10.40;3.60;;;13.70;99.10;;;;;;21002684;28;20272;-76
2023/03/30 07:31:23;;;;;;;10.07;3.87;;;13.60;99.80;;;;;;21067678;27;20661;-76
2023/03/30 07:41:39;;;;;;;11.53;3.77;;;13.50;99.90;;;;;;21237043;27;20557;-76
2023/03/30 07:51:41;;;;;;;13.47;3.20;;;;;;;;;;21235643;28;20198;-76
2023/03/30 08:01:56;;;;;;;8.93;2.77;;;13.70;99.90;;;;;;21151623;27;20570;-80
2023/03/30 08:11:58;;;;;;;11.03;2.90;;;13.80;99.90;;;;;;21150079;28;20204;-77
2023/03/30 08:22:00;;;;;;;13.53;3.47;;;13.90;99.90;;;;;;21149718;28;20216;-77
2023/03/30 08:32:02;;;;;;;11.20;3.20;;;14.00;99.90;;;;;;21154144;28;20214;-78
2023/03/30 08:42:30;;;;;;;15.97;3.83;;;14.00;99.90;;;;;;21146178;28;20211;-77
2023/03/30 08:52:32;;;;;;;10.37;3.60;;;14.00;99.90;;;;;;21147574;28;20243;-78
2023/03/30 09:02:41;;;;;;;16.10;3.80;;;14.20;99.90;;;;;;21146778;28;20206;-78
2023/03/30 09:12:51;;;;;;;13.53;3.50;;;14.50;99.90;;;;;;21092666;28;20230;-78
2023/03/30 09:22:55;;;;;;;9.30;3.27;;;14.60;99.90;;;;;;21089407;28;20206;-78
2023/03/30 09:33:03;;;;;;;11.50;3.57;;;14.90;99.90;;;;;;21088175;28;20241;-77
2023/03/30 09:43:15;;;;;;;7.97;3.30;;;15.00;99.90;;;;;;21087661;28;20206;-77
2023/03/30 09:53:28;;;;;;;10.67;3.60;;;15.10;99.90;;;;;;21087032;28;20620;-78
2023/03/30 10:03:30;;;;;;;10.43;3.53;;;15.20;99.90;;;;;;21085756;28;20280;-76
2023/03/30 10:13:37;;;;;;;12.53;3.20;;;15.30;99.90;;;;;;21084836;28;20281;-76
2023/03/30 10:23:42;;;;;;;8.97;3.90;;;15.50;99.80;;;;;;21078876;28;20214;-74
2023/03/30 10:33:44;;;;;;;7.53;3.60;;;15.50;99.50;;;;;;21081249;28;20234;-75
2023/03/30 10:43:48;;;;;;;7.83;4.33;;;15.70;99.00;;;;;;21078785;28;20562;-75
2023/03/30 10:53:55;;;;;;;9.27;3.23;;;15.80;98.70;;;;;;21080710;28;20234;-75
2023/03/30 11:04:09;;;;;;;7.33;2.90;;;15.80;98.20;;;;;;21080410;28;20209;-78
2023/03/30 11:14:32;;;;;;;9.40;3.37;;;16.10;97.20;;;;;;21079667;28;20298;-77
2023/03/30 11:24:36;;;;;;;7.30;3.00;;;16.40;96.20;;;;;;21079585;28;20200;-76
2023/03/30 11:35:01;;;;;;;6.23;2.60;;;17.00;95.40;;;;;;21078295;28;20693;-74
2023/03/30 11:45:24;;;;;;;7.17;3.13;;;16.90;94.60;;;;;;21075299;28;20270;-76
2023/03/30 11:55:49;;;;;;;5.57;2.90;;;16.80;92.60;;;;;;21074556;28;20241;-75
2023/03/30 12:06:15;;;;;;;4.43;2.40;;;16.70;91.30;;;;;;21075517;28;20208;-76
2023/03/30 12:16:26;;;;;;;4.80;2.53;;;16.60;90.50;;;;;;21076882;28;20651;-77
2023/03/30 12:26:33;;;;;;;6.90;2.30;;;16.80;90.10;;;;;;21075943;28;20204;-74
2023/03/30 12:36:39;;;;;;;6.07;2.47;;;17.00;89.90;;;;;;21075728;28;20236;-72
2023/03/30 12:47:14;;;;;;;9.00;3.70;;;17.50;89.60;;;;;;21088443;28;20202;-72
2023/03/30 12:57:57;;;;;;;16.93;5.37;;;17.80;86.50;;;;;;21090557;28;20294;-70
2023/03/30 13:08:05;;;;;;;6.03;2.20;;;18.00;84.60;;;;;;21090443;28;20266;-73
2023/03/30 13:18:07;;;;;;;2.90;1.80;;;18.10;78.90;;;;;;21089549;28;20239;-74
2023/03/30 13:28:36;;;;;;;5.33;2.00;;;18.60;77.00;;;;;;21079940;28;20274;-71
2023/03/30 13:38:53;;;;;;;5.43;1.70;;;18.20;74.00;;;;;;21133268;28;20692;-74
2023/03/30 13:49:20;;;;;;;7.27;2.13;;;17.50;70.70;;;;;;21103918;28;20218;-74
2023/03/30 13:59:28;;;;;;;2.23;1.03;;;17.40;67.60;;;;;;21131220;28;20772;-73
2023/03/30 14:09:29;;;;;;;1.60;1.20;;;17.40;68.20;;;;;;21085500;28;20200;-76
2023/03/30 14:19:35;;;;;;;4.33;1.20;;;22.30;60.40;;;;;;21084385;28;20234;-73
2023/03/30 14:29:47;;;;;;;1.43;0.90;;;24.40;57.60;;;;;;21083828;28;20210;-73
2023/03/30 14:39:54;;;;;;;2.80;1.30;;;21.50;59.60;;;;;;21083721;28;20226;-76
2023/03/30 14:50:03;;;;;;;4.60;1.37;;;20.90;60.70;;;;;;21081624;28;20208;-74
2023/03/30 15:00:21;;;;;;;4.23;1.50;;;21.20;59.70;;;;;;21081302;28;20239;-72
2023/03/30 15:10:30;;;;;;;2.13;1.20;;;21.10;58.80;;;;;;21079808;28;20211;-71
2023/03/30 15:20:32;;;;;;;5.40;1.43;;;21.10;59.30;;;;;;21080600;28;20283;-72
2023/03/30 15:30:39;;;;;;;8.07;2.70;;;19.50;62.10;;;;;;21079446;28;20689;-76
2023/03/30 15:40:44;;;;;;;5.50;2.93;;;17.20;71.20;;;;;;21079259;28;20236;-76
2023/03/30 15:50:51;;;;;;;8.40;3.10;;;16.70;73.70;;;;;;21079311;28;20214;-76
2023/03/30 16:00:54;;;;;;;3.20;1.97;;;16.00;81.00;;;;;;21078996;28;20249;-78
2023/03/30 16:10:56;;;;;;;3.73;1.80;;;15.00;90.70;;;;;;20993325;28;20204;-77
2023/03/30 16:20:58;;;;;;;3.77;1.63;;;15.30;92.00;;;;;;21006972;28;20239;-79
2023/03/30 16:31:05;;;;;;;5.23;1.43;;;15.20;91.50;;;;;;21009867;28;20203;-73
2023/03/30 16:41:12;;;;;;;3.30;1.60;;;15.30;91.10;;;;;;21032350;28;20281;-75
2023/03/30 16:51:14;;;;;;;4.83;1.60;;;15.40;91.60;;;;;;21072054;28;20224;-72
2023/03/30 17:08:34;;;;;;;10.40;4.87;;;15.10;92.40;;;;;;20975048;28;20931;-69
2023/03/30 17:18:36;;;;;;;8.73;3.63;;;14.90;93.10;;;;;;20953290;28;20227;-71
2023/03/30 17:28:38;;;;;;;4.63;2.80;;;14.90;93.70;;;;;;21026099;28;20642;-71
2023/03/30 17:38:40;;;;;;;3.73;2.20;;;14.80;94.30;;;;;;20983142;28;20706;-70
2023/03/30 17:50:42;;;;;;;6.40;1.90;;;14.70;94.80;;;;;;20973027;28;20569;-70
2023/03/30 18:00:45;;;;;;;8.80;2.40;;;14.40;95.50;;;;;;20951546;28;20214;-73
2023/03/30 18:10:50;;;;;;;7.73;2.07;;;14.20;95.80;;;;;;20918378;28;20222;-72
2023/03/30 18:21:02;;;;;;;7.03;2.00;;;14.00;95.90;;;;;;20895161;28;20208;-74
2023/03/30 18:31:07;;;;;;;7.73;2.00;;;14.00;95.50;;;;;;20897415;28;20631;-76
2023/03/30 18:41:11;;;;;;;6.47;2.43;;;13.80;95.40;;;;;;20897392;28;20670;-73
2023/03/30 18:51:13;;;;;;;8.60;2.87;;;13.80;95.40;;;;;;20897275;28;20585;-71
2023/03/30 19:01:15;;;;;;;6.07;2.80;;;13.50;95.50;;;;;;20845387;28;20707;-72
2023/03/30 19:11:21;;;;;;;6.60;2.13;;;13.50;94.80;;;;;;20840075;28;20205;-71
2023/03/30 19:21:23;;;;;;;7.07;1.93;;;13.50;94.20;;;;;;20839871;28;20240;-72
2023/03/30 19:31:25;;;;;;;7.70;2.67;;;13.50;93.90;;;;;;20838451;28;20210;-73
2023/03/30 19:41:27;;;;;;;6.57;2.50;;;13.50;93.30;;;;;;20842268;28;20319;-71
2023/03/30 19:51:28;;;;;;;5.70;1.70;;;13.50;93.20;;;;;;20880905;28;20210;-72
2023/03/30 20:01:30;;;;;;;5.87;2.00;;;13.60;92.40;;;;;;20871141;28;20263;-73
2023/03/30 20:11:32;;;;;;;4.20;1.57;;;13.70;91.70;;;;;;20869159;28;20663;-72
2023/03/30 20:21:34;;;;;;;4.27;1.60;;;13.70;91.40;;;;;;20873829;28;20334;-71
2023/03/30 20:31:35;;;;;;;6.53;1.83;;;13.80;91.20;;;;;;20871601;28;20266;-71
2023/03/30 20:41:37;;;;;;;3.67;1.20;;;13.80;90.90;;;;;;20866413;28;20247;-71
2023/03/30 20:51:42;;;;;;;3.07;1.27;;;13.80;90.70;;;;;;20871629;28;20259;-72
2023/03/30 21:01:45;;;;;;;4.63;1.60;;;13.80;90.70;;;;;;20869765;28;20238;-71
2023/03/30 21:11:47;;;;;;;4.83;1.50;;;13.70;90.70;;;;;;20865123;28;20600;-71
2023/03/30 21:29:26;;;;;;;5.70;1.33;;;13.50;91.10;;;;;;20943655;28;20568;-71
2023/03/30 21:39:28;;;;;;;4.90;1.30;;;13.40;91.70;;;;;;20936823;28;20242;-71
2023/03/30 21:49:30;;;;;;;3.70;1.47;;;13.40;91.70;;;;;;20935819;28;20207;-71
2023/03/30 21:59:31;;;;;;;4.97;1.50;;;13.30;92.10;;;;;;20941947;28;20214;-71
2023/03/30 22:09:33;;;;;;;2.90;1.40;;;13.20;92.30;;;;;;20929346;28;20668;-71
2023/03/30 22:19:35;;;;;;;3.83;1.23;;;13.30;92.40;;;;;;20934573;28;20295;-72
2023/03/30 22:29:36;;;;;;;4.07;1.50;;;13.20;92.50;;;;;;20931829;28;20216;-72
2023/03/30 22:39:38;;;;;;;3.87;1.53;;;13.20;92.60;;;;;;20879648;28;20212;-72
2023/03/30 22:49:40;;;;;;;4.23;1.50;;;13.30;92.70;;;;;;20872575;28;20255;-72
2023/03/30 22:59:43;;;;;;;8.53;1.70;;;13.20;92.70;;;;;;20877018;28;20733;-72
2023/03/30 23:09:46;;;;;;;5.70;1.60;;;13.10;92.80;;;;;;20874770;28;20211;-71
2023/03/30 23:19:48;;;;;;;3.27;1.60;;;13.00;92.90;;;;;;20872348;28;20281;-71
2023/03/30 23:29:51;;;;;;;5.47;1.67;;;12.90;93.00;;;;;;20870590;28;20259;-70
2023/03/30 23:39:53;;;;;;;5.13;1.47;;;12.80;93.20;;;;;;20872826;28;20280;-71
2023/03/30 23:49:55;;;;;;;3.73;1.73;;;12.80;93.40;;;;;;20918237;28;20259;-71
2023/03/30 23:59:56;;;;;;;3.90;1.40;;;12.70;93.50;;;;;;20917645;28;20752;-71
